sensor_id;sensor_type;location;lat;lon;timestamp;P1;durP1;ratioP1;P2;durP2;ratioP2
85001;SDS011;75323;31.624;-8.002;2024-03-17T00:01:00;11.35;;;4.28;;
85001;SDS011;75323;31.624;-8.002;2024-03-17T00:03:27;9.30;;;4.53;;
85001;SDS011;75323;31.624;-8.002;2024-03-17T00:05:57;12.15;;;4.97;;
85001;SDS011;75323;31.624;-8.002;2024-03-17T00:08:23;9.95;;;4.55;;
85001;SDS011;75323;31.624;-8.002;2024-03-17T00:10:50;9.00;;;3.80;;
85001;SDS011;75323;31.624;-8.002;2024-03-17T00:13:17;13.80;;;5.35;;
85001;SDS011;75323;31.624;-8.002;2024-03-17T00:15:43;9.27;;;3.65;;
85001;SDS011;75323;31.624;-8.002;2024-03-17T00:18:12;13.60;;;4.78;;
85001;SDS011;75323;31.624;-8.002;2024-03-17T00:20:37;11.27;;;6.30;;
85001;SDS011;75323;31.624;-8.002;2024-03-17T00:23:06;12.77;;;5.57;;
85001;SDS011;75323;31.624;-8.002;2024-03-17T00:25:34;12.18;;;3.45;;
85001;SDS011;75323;31.624;-8.002;2024-03-17T00:28:00;12.15;;;4.35;;
85001;SDS011;75323;31.624;-8.002;2024-03-17T00:30:26;9.38;;;4.00;;
85001;SDS011;75323;31.624;-8.002;2024-03-17T00:32:52;13.20;;;5.07;;
85001;SDS011;75323;31.624;-8.002;2024-03-17T00:35:18;10.85;;;3.95;;
85001;SDS011;75323;31.624;-8.002;2024-03-17T00:37:47;8.18;;;3.90;;
85001;SDS011;75323;31.624;-8.002;2024-03-17T00:40:13;12.32;;;3.78;;
85001;SDS011;75323;31.624;-8.002;2024-03-17T00:42:39;8.85;;;3.47;;
85001;SDS011;75323;31.624;-8.002;2024-03-17T00:45:06;17.85;;;4.60;;
85001;SDS011;75323;31.624;-8.002;2024-03-17T00:47:32;12.00;;;4.03;;
85001;SDS011;75323;31.624;-8.002;2024-03-17T00:49:58;13.52;;;5.43;;
85001;SDS011;75323;31.624;-8.002;2024-03-17T00:52:24;11.43;;;4.03;;
85001;SDS011;75323;31.624;-8.002;2024-03-17T00:54:50;12.57;;;3.92;;
85001;SDS011;75323;31.624;-8.002;2024-03-17T00:57:16;11.98;;;4.78;;
85001;SDS011;75323;31.624;-8.002;2024-03-17T00:59:42;8.60;;;3.58;;
85001;SDS011;75323;31.624;-8.002;2024-03-17T01:02:11;10.13;;;3.67;;
85001;SDS011;75323;31.624;-8.002;2024-03-17T01:04:41;17.20;;;4.10;;
85001;SDS011;75323;31.624;-8.002;2024-03-17T01:07:09;11.93;;;3.95;;
85001;SDS011;75323;31.624;-8.002;2024-03-17T01:09:35;8.35;;;3.83;;
85001;SDS011;75323;31.624;-8.002;2024-03-17T01:12:01;12.23;;;2.83;;
85001;SDS011;75323;31.624;-8.002;2024-03-17T01:14:27;13.93;;;4.60;;
85001;SDS011;75323;31.624;-8.002;2024-03-17T01:16:53;10.20;;;3.58;;
85001;SDS011;75323;31.624;-8.002;2024-03-17T01:19:20;12.07;;;3.38;;
85001;SDS011;75323;31.624;-8.002;2024-03-17T01:21:45;9.88;;;4.28;;
85001;SDS011;75323;31.624;-8.002;2024-03-17T01:24:12;11.38;;;3.20;;
85001;SDS011;75323;31.624;-8.002;2024-03-17T01:26:38;11.20;;;3.40;;
85001;SDS011;75323;31.624;-8.002;2024-03-17T01:29:04;12.77;;;3.72;;
85001;SDS011;75323;31.624;-8.002;2024-03-17T01:31:30;9.07;;;3.55;;
85001;SDS011;75323;31.624;-8.002;2024-03-17T01:33:56;10.40;;;3.55;;
85001;SDS011;75323;31.624;-8.002;2024-03-17T01:36:22;9.00;;;3.90;;
85001;SDS011;75323;31.624;-8.002;2024-03-17T01:38:47;9.40;;;3.28;;
85001;SDS011;75323;31.624;-8.002;2024-03-17T01:41:13;13.88;;;3.58;;
85001;SDS011;75323;31.624;-8.002;2024-03-17T01:43:39;9.73;;;3.45;;
85001;SDS011;75323;31.624;-8.002;2024-03-17T01:46:06;13.30;;;4.35;;
85001;SDS011;75323;31.624;-8.002;2024-03-17T01:48:33;11.00;;;3.90;;
85001;SDS011;75323;31.624;-8.002;2024-03-17T01:50:59;10.55;;;4.72;;
85001;SDS011;75323;31.624;-8.002;2024-03-17T01:53:24;11.75;;;3.67;;
85001;SDS011;75323;31.624;-8.002;2024-03-17T01:55:50;8.43;;;4.22;;
85001;SDS011;75323;31.624;-8.002;2024-03-17T01:58:20;13.57;;;3.55;;
85001;SDS011;75323;31.624;-8.002;2024-03-17T02:00:47;7.95;;;2.65;;
85001;SDS011;75323;31.624;-8.002;2024-03-17T02:03:13;13.32;;;3.90;;
85001;SDS011;75323;31.624;-8.002;2024-03-17T02:05:39;19.77;;;4.05;;
85001;SDS011;75323;31.624;-8.002;2024-03-17T02:08:05;13.52;;;4.05;;
85001;SDS011;75323;31.624;-8.002;2024-03-17T02:10:32;14.10;;;4.07;;
85001;SDS011;75323;31.624;-8.002;2024-03-17T02:12:58;14.60;;;3.67;;
85001;SDS011;75323;31.624;-8.002;2024-03-17T02:15:25;10.02;;;4.95;;
85001;SDS011;75323;31.624;-8.002;2024-03-17T02:17:51;18.48;;;6.75;;
85001;SDS011;75323;31.624;-8.002;2024-03-17T02:20:16;14.65;;;4.18;;
85001;SDS011;75323;31.624;-8.002;2024-03-17T02:22:43;12.30;;;3.80;;
85001;SDS011;75323;31.624;-8.002;2024-03-17T02:25:09;13.95;;;3.45;;
85001;SDS011;75323;31.624;-8.002;2024-03-17T02:27:35;10.18;;;3.60;;
85001;SDS011;75323;31.624;-8.002;2024-03-17T02:30:01;11.05;;;3.47;;
85001;SDS011;75323;31.624;-8.002;2024-03-17T02:32:28;15.20;;;4.97;;
85001;SDS011;75323;31.624;-8.002;2024-03-17T02:34:54;14.75;;;3.85;;
85001;SDS011;75323;31.624;-8.002;2024-03-17T02:37:20;14.25;;;4.25;;
85001;SDS011;75323;31.624;-8.002;2024-03-17T02:39:46;11.45;;;4.35;;
85001;SDS011;75323;31.624;-8.002;2024-03-17T02:42:11;10.52;;;4.70;;
85001;SDS011;75323;31.624;-8.002;2024-03-17T02:44:40;11.18;;;4.53;;
85001;SDS011;75323;31.624;-8.002;2024-03-17T02:47:06;11.77;;;4.82;;
85001;SDS011;75323;31.624;-8.002;2024-03-17T02:49:35;8.82;;;4.88;;
85001;SDS011;75323;31.624;-8.002;2024-03-17T02:52:09;11.55;;;4.65;;
85001;SDS011;75323;31.624;-8.002;2024-03-17T02:54:37;16.15;;;5.72;;
85001;SDS011;75323;31.624;-8.002;2024-03-17T02:57:03;11.38;;;5.45;;
85001;SDS011;75323;31.624;-8.002;2024-03-17T02:59:30;9.30;;;4.32;;
85001;SDS011;75323;31.624;-8.002;2024-03-17T03:01:56;12.80;;;5.00;;
85001;SDS011;75323;31.624;-8.002;2024-03-17T03:04:23;8.65;;;3.75;;
85001;SDS011;75323;31.624;-8.002;2024-03-17T03:06:48;12.82;;;3.92;;
85001;SDS011;75323;31.624;-8.002;2024-03-17T03:09:14;8.57;;;3.10;;
85001;SDS011;75323;31.624;-8.002;2024-03-17T03:11:45;10.30;;;2.88;;
85001;SDS011;75323;31.624;-8.002;2024-03-17T03:14:15;10.40;;;4.45;;
85001;SDS011;75323;31.624;-8.002;2024-03-17T03:16:40;13.68;;;4.95;;
85001;SDS011;75323;31.624;-8.002;2024-03-17T03:19:06;13.73;;;4.72;;
85001;SDS011;75323;31.624;-8.002;2024-03-17T03:21:32;14.25;;;5.75;;
85001;SDS011;75323;31.624;-8.002;2024-03-17T03:23:58;14.40;;;5.70;;
85001;SDS011;75323;31.624;-8.002;2024-03-17T03:26:23;19.10;;;6.65;;
85001;SDS011;75323;31.624;-8.002;2024-03-17T03:28:49;15.15;;;5.30;;
85001;SDS011;75323;31.624;-8.002;2024-03-17T03:31:15;14.40;;;5.65;;
85001;SDS011;75323;31.624;-8.002;2024-03-17T03:33:42;15.05;;;6.03;;
85001;SDS011;75323;31.624;-8.002;2024-03-17T03:36:11;15.23;;;5.78;;
85001;SDS011;75323;31.624;-8.002;2024-03-17T03:38:37;18.33;;;6.38;;
85001;SDS011;75323;31.624;-8.002;2024-03-17T03:41:12;16.98;;;6.05;;
85001;SDS011;75323;31.624;-8.002;2024-03-17T03:43:39;14.75;;;5.97;;
85001;SDS011;75323;31.624;-8.002;2024-03-17T03:46:07;14.85;;;4.95;;
85001;SDS011;75323;31.624;-8.002;2024-03-17T03:48:33;15.70;;;4.50;;
85001;SDS011;75323;31.624;-8.002;2024-03-17T03:51:03;16.70;;;4.63;;
85001;SDS011;75323;31.624;-8.002;2024-03-17T03:53:30;9.23;;;4.95;;
85001;SDS011;75323;31.624;-8.002;2024-03-17T03:55:57;16.17;;;4.90;;
85001;SDS011;75323;31.624;-8.002;2024-03-17T03:58:24;11.75;;;5.30;;
85001;SDS011;75323;31.624;-8.002;2024-03-17T04:00:50;17.70;;;5.13;;
85001;SDS011;75323;31.624;-8.002;2024-03-17T04:03:16;14.23;;;4.40;;
85001;SDS011;75323;31.624;-8.002;2024-03-17T04:05:41;17.00;;;6.95;;
85001;SDS011;75323;31.624;-8.002;2024-03-17T04:08:07;14.45;;;7.30;;
85001;SDS011;75323;31.624;-8.002;2024-03-17T04:10:34;18.05;;;7.57;;
85001;SDS011;75323;31.624;-8.002;2024-03-17T04:13:00;21.08;;;7.65;;
85001;SDS011;75323;31.624;-8.002;2024-03-17T04:15:26;18.67;;;6.88;;
85001;SDS011;75323;31.624;-8.002;2024-03-17T04:17:52;18.98;;;7.45;;
85001;SDS011;75323;31.624;-8.002;2024-03-17T04:20:17;19.00;;;6.15;;
85001;SDS011;75323;31.624;-8.002;2024-03-17T04:22:43;19.10;;;7.40;;
85001;SDS011;75323;31.624;-8.002;2024-03-17T04:25:09;15.35;;;5.75;;
85001;SDS011;75323;31.624;-8.002;2024-03-17T04:27:35;14.80;;;6.10;;
85001;SDS011;75323;31.624;-8.002;2024-03-17T04:30:02;18.70;;;6.95;;
85001;SDS011;75323;31.624;-8.002;2024-03-17T04:32:31;19.30;;;7.07;;
85001;SDS011;75323;31.624;-8.002;2024-03-17T04:34:57;14.93;;;6.97;;
85001;SDS011;75323;31.624;-8.002;2024-03-17T04:37:23;17.92;;;6.45;;
85001;SDS011;75323;31.624;-8.002;2024-03-17T04:39:49;23.23;;;6.57;;
85001;SDS011;75323;31.624;-8.002;2024-03-17T04:42:16;12.98;;;6.78;;
85001;SDS011;75323;31.624;-8.002;2024-03-17T04:44:45;20.92;;;7.05;;
85001;SDS011;75323;31.624;-8.002;2024-03-17T04:47:11;22.90;;;7.97;;
85001;SDS011;75323;31.624;-8.002;2024-03-17T04:49:38;13.73;;;6.55;;
85001;SDS011;75323;31.624;-8.002;2024-03-17T04:52:05;13.75;;;5.55;;
85001;SDS011;75323;31.624;-8.002;2024-03-17T04:54:32;15.73;;;4.57;;
85001;SDS011;75323;31.624;-8.002;2024-03-17T04:56:59;11.38;;;3.78;;
85001;SDS011;75323;31.624;-8.002;2024-03-17T04:59:24;12.23;;;4.35;;
85001;SDS011;75323;31.624;-8.002;2024-03-17T05:01:51;8.32;;;4.03;;
85001;SDS011;75323;31.624;-8.002;2024-03-17T05:04:17;10.23;;;3.72;;
85001;SDS011;75323;31.624;-8.002;2024-03-17T05:06:43;10.68;;;4.07;;
85001;SDS011;75323;31.624;-8.002;2024-03-17T05:09:14;13.23;;;3.67;;
85001;SDS011;75323;31.624;-8.002;2024-03-17T05:11:43;10.48;;;3.30;;
85001;SDS011;75323;31.624;-8.002;2024-03-17T05:14:09;17.95;;;3.78;;
85001;SDS011;75323;31.624;-8.002;2024-03-17T05:16:35;13.50;;;3.53;;
85001;SDS011;75323;31.624;-8.002;2024-03-17T05:19:01;18.08;;;4.53;;
85001;SDS011;75323;31.624;-8.002;2024-03-17T05:21:28;14.13;;;4.53;;
85001;SDS011;75323;31.624;-8.002;2024-03-17T05:23:55;14.50;;;4.47;;
85001;SDS011;75323;31.624;-8.002;2024-03-17T05:26:25;14.20;;;3.88;;
85001;SDS011;75323;31.624;-8.002;2024-03-17T05:28:51;15.73;;;2.72;;
85001;SDS011;75323;31.624;-8.002;2024-03-17T05:31:16;11.02;;;2.80;;
85001;SDS011;75323;31.624;-8.002;2024-03-17T05:33:43;10.25;;;3.53;;
85001;SDS011;75323;31.624;-8.002;2024-03-17T05:36:09;10.82;;;2.63;;
85001;SDS011;75323;31.624;-8.002;2024-03-17T05:38:35;13.63;;;2.72;;
85001;SDS011;75323;31.624;-8.002;2024-03-17T05:41:02;12.50;;;1.83;;
85001;SDS011;75323;31.624;-8.002;2024-03-17T05:43:30;10.88;;;2.35;;
85001;SDS011;75323;31.624;-8.002;2024-03-17T05:46:07;12.80;;;2.15;;
85001;SDS011;75323;31.624;-8.002;2024-03-17T05:48:34;13.05;;;2.78;;
85001;SDS011;75323;31.624;-8.002;2024-03-17T05:51:07;11.93;;;3.47;;
85001;SDS011;75323;31.624;-8.002;2024-03-17T05:53:34;7.78;;;2.58;;
85001;SDS011;75323;31.624;-8.002;2024-03-17T05:56:01;9.35;;;2.70;;
85001;SDS011;75323;31.624;-8.002;2024-03-17T05:58:27;10.68;;;2.67;;
85001;SDS011;75323;31.624;-8.002;2024-03-17T06:00:53;9.70;;;3.80;;
85001;SDS011;75323;31.624;-8.002;2024-03-17T06:03:19;16.02;;;3.13;;
85001;SDS011;75323;31.624;-8.002;2024-03-17T06:05:46;11.30;;;2.63;;
85001;SDS011;75323;31.624;-8.002;2024-03-17T06:08:12;8.23;;;1.95;;
85001;SDS011;75323;31.624;-8.002;2024-03-17T06:10:42;9.02;;;3.03;;
85001;SDS011;75323;31.624;-8.002;2024-03-17T06:13:09;12.82;;;3.22;;
85001;SDS011;75323;31.624;-8.002;2024-03-17T06:15:41;17.42;;;2.85;;
85001;SDS011;75323;31.624;-8.002;2024-03-17T06:18:08;12.25;;;2.20;;
85001;SDS011;75323;31.624;-8.002;2024-03-17T06:20:41;10.38;;;2.03;;
85001;SDS011;75323;31.624;-8.002;2024-03-17T06:23:10;10.27;;;2.50;;
85001;SDS011;75323;31.624;-8.002;2024-03-17T06:25:43;11.48;;;2.65;;
85001;SDS011;75323;31.624;-8.002;2024-03-17T06:28:10;10.23;;;3.78;;
85001;SDS011;75323;31.624;-8.002;2024-03-17T06:30:42;14.55;;;4.03;;
85001;SDS011;75323;31.624;-8.002;2024-03-17T06:33:11;14.75;;;2.75;;
85001;SDS011;75323;31.624;-8.002;2024-03-17T06:35:39;7.00;;;3.10;;
85001;SDS011;75323;31.624;-8.002;2024-03-17T06:38:05;17.00;;;1.95;;
85001;SDS011;75323;31.624;-8.002;2024-03-17T06:40:35;14.23;;;3.33;;
85001;SDS011;75323;31.624;-8.002;2024-03-17T06:43:01;10.85;;;2.67;;
85001;SDS011;75323;31.624;-8.002;2024-03-17T06:45:27;17.80;;;4.57;;
85001;SDS011;75323;31.624;-8.002;2024-03-17T06:47:53;20.90;;;5.90;;
85001;SDS011;75323;31.624;-8.002;2024-03-17T06:50:20;14.88;;;5.53;;
85001;SDS011;75323;31.624;-8.002;2024-03-17T06:52:46;20.75;;;4.82;;
85001;SDS011;75323;31.624;-8.002;2024-03-17T06:55:12;21.90;;;4.72;;
85001;SDS011;75323;31.624;-8.002;2024-03-17T06:57:38;14.77;;;4.60;;
85001;SDS011;75323;31.624;-8.002;2024-03-17T07:00:09;15.05;;;4.97;;
85001;SDS011;75323;31.624;-8.002;2024-03-17T07:02:39;19.25;;;4.85;;
85001;SDS011;75323;31.624;-8.002;2024-03-17T07:05:14;11.13;;;4.43;;
85001;SDS011;75323;31.624;-8.002;2024-03-17T07:07:41;24.50;;;4.90;;
85001;SDS011;75323;31.624;-8.002;2024-03-17T07:10:07;13.10;;;5.18;;
85001;SDS011;75323;31.624;-8.002;2024-03-17T07:12:33;18.00;;;4.30;;
85001;SDS011;75323;31.624;-8.002;2024-03-17T07:14:59;16.52;;;5.35;;
85001;SDS011;75323;31.624;-8.002;2024-03-17T07:17:25;10.05;;;3.40;;
85001;SDS011;75323;31.624;-8.002;2024-03-17T07:19:51;16.80;;;4.55;;
85001;SDS011;75323;31.624;-8.002;2024-03-17T07:22:17;11.90;;;4.63;;
85001;SDS011;75323;31.624;-8.002;2024-03-17T07:24:43;13.40;;;3.10;;
85001;SDS011;75323;31.624;-8.002;2024-03-17T07:27:09;10.05;;;4.03;;
85001;SDS011;75323;31.624;-8.002;2024-03-17T07:29:39;13.82;;;4.05;;
85001;SDS011;75323;31.624;-8.002;2024-03-17T07:32:05;12.88;;;4.88;;
85001;SDS011;75323;31.624;-8.002;2024-03-17T07:34:31;15.73;;;3.47;;
85001;SDS011;75323;31.624;-8.002;2024-03-17T07:36:57;20.58;;;3.83;;
85001;SDS011;75323;31.624;-8.002;2024-03-17T07:39:28;14.00;;;4.50;;
85001;SDS011;75323;31.624;-8.002;2024-03-17T07:41:58;19.45;;;4.05;;
85001;SDS011;75323;31.624;-8.002;2024-03-17T07:44:27;11.48;;;3.45;;
85001;SDS011;75323;31.624;-8.002;2024-03-17T07:46:58;12.85;;;4.10;;
85001;SDS011;75323;31.624;-8.002;2024-03-17T07:49:24;12.55;;;3.38;;
85001;SDS011;75323;31.624;-8.002;2024-03-17T07:51:49;11.20;;;3.65;;
85001;SDS011;75323;31.624;-8.002;2024-03-17T07:54:15;12.45;;;4.35;;
85001;SDS011;75323;31.624;-8.002;2024-03-17T07:56:41;13.02;;;4.40;;
85001;SDS011;75323;31.624;-8.002;2024-03-17T07:59:07;13.20;;;4.10;;
85001;SDS011;75323;31.624;-8.002;2024-03-17T08:01:42;13.82;;;4.38;;
85001;SDS011;75323;31.624;-8.002;2024-03-17T08:04:07;16.05;;;4.13;;
85001;SDS011;75323;31.624;-8.002;2024-03-17T08:06:33;17.02;;;5.05;;
85001;SDS011;75323;31.624;-8.002;2024-03-17T08:08:59;20.23;;;6.22;;
85001;SDS011;75323;31.624;-8.002;2024-03-17T08:11:25;16.15;;;4.68;;
85001;SDS011;75323;31.624;-8.002;2024-03-17T08:13:51;18.77;;;4.50;;
85001;SDS011;75323;31.624;-8.002;2024-03-17T08:16:16;18.20;;;6.22;;
85001;SDS011;75323;31.624;-8.002;2024-03-17T08:18:42;14.80;;;4.38;;
85001;SDS011;75323;31.624;-8.002;2024-03-17T08:21:08;18.88;;;5.00;;
85001;SDS011;75323;31.624;-8.002;2024-03-17T08:23:34;15.25;;;4.43;;
85001;SDS011;75323;31.624;-8.002;2024-03-17T08:26:07;19.88;;;5.93;;
85001;SDS011;75323;31.624;-8.002;2024-03-17T08:28:33;17.40;;;4.40;;
85001;SDS011;75323;31.624;-8.002;2024-03-17T08:31:00;12.13;;;5.05;;
85001;SDS011;75323;31.624;-8.002;2024-03-17T08:33:27;21.52;;;5.68;;
85001;SDS011;75323;31.624;-8.002;2024-03-17T08:35:59;14.02;;;5.63;;
85001;SDS011;75323;31.624;-8.002;2024-03-17T08:38:31;27.25;;;7.07;;
85001;SDS011;75323;31.624;-8.002;2024-03-17T08:40:58;21.25;;;6.82;;
85001;SDS011;75323;31.624;-8.002;2024-03-17T08:43:28;19.55;;;8.10;;
85001;SDS011;75323;31.624;-8.002;2024-03-17T08:45:54;22.83;;;8.55;;
85001;SDS011;75323;31.624;-8.002;2024-03-17T08:48:28;27.38;;;9.75;;
85001;SDS011;75323;31.624;-8.002;2024-03-17T08:50:55;21.77;;;7.72;;
85001;SDS011;75323;31.624;-8.002;2024-03-17T08:53:21;18.17;;;7.78;;
85001;SDS011;75323;31.624;-8.002;2024-03-17T08:55:48;23.23;;;8.30;;
85001;SDS011;75323;31.624;-8.002;2024-03-17T08:58:15;16.98;;;7.10;;
85001;SDS011;75323;31.624;-8.002;2024-03-17T09:00:41;24.50;;;8.20;;
85001;SDS011;75323;31.624;-8.002;2024-03-17T09:03:07;29.80;;;9.07;;
85001;SDS011;75323;31.624;-8.002;2024-03-17T09:05:40;20.95;;;7.63;;
85001;SDS011;75323;31.624;-8.002;2024-03-17T09:08:07;21.05;;;6.95;;
85001;SDS011;75323;31.624;-8.002;2024-03-17T09:10:40;23.15;;;5.63;;
85001;SDS011;75323;31.624;-8.002;2024-03-17T09:13:06;25.15;;;7.95;;
85001;SDS011;75323;31.624;-8.002;2024-03-17T09:15:32;13.82;;;5.70;;
85001;SDS011;75323;31.624;-8.002;2024-03-17T09:17:58;12.77;;;5.43;;
85001;SDS011;75323;31.624;-8.002;2024-03-17T09:20:24;20.50;;;5.15;;
85001;SDS011;75323;31.624;-8.002;2024-03-17T09:22:49;13.15;;;6.28;;
85001;SDS011;75323;31.624;-8.002;2024-03-17T09:25:15;26.17;;;5.82;;
85001;SDS011;75323;31.624;-8.002;2024-03-17T09:27:41;21.38;;;6.35;;
85001;SDS011;75323;31.624;-8.002;2024-03-17T09:30:07;16.90;;;5.82;;
85001;SDS011;75323;31.624;-8.002;2024-03-17T09:32:36;17.88;;;5.55;;
85001;SDS011;75323;31.624;-8.002;2024-03-17T09:35:02;22.50;;;6.13;;
85001;SDS011;75323;31.624;-8.002;2024-03-17T09:37:30;21.15;;;6.13;;
85001;SDS011;75323;31.624;-8.002;2024-03-17T09:39:57;15.75;;;6.43;;
85001;SDS011;75323;31.624;-8.002;2024-03-17T09:42:26;16.27;;;6.55;;
85001;SDS011;75323;31.624;-8.002;2024-03-17T09:44:53;23.38;;;7.22;;
85001;SDS011;75323;31.624;-8.002;2024-03-17T09:47:22;19.40;;;6.85;;
85001;SDS011;75323;31.624;-8.002;2024-03-17T09:49:51;18.73;;;7.28;;
85001;SDS011;75323;31.624;-8.002;2024-03-17T09:52:26;19.33;;;6.68;;
85001;SDS011;75323;31.624;-8.002;2024-03-17T09:54:59;14.63;;;5.35;;
85001;SDS011;75323;31.624;-8.002;2024-03-17T09:57:26;15.40;;;6.40;;
85001;SDS011;75323;31.624;-8.002;2024-03-17T09:59:52;17.48;;;5.40;;
85001;SDS011;75323;31.624;-8.002;2024-03-17T10:02:21;19.02;;;5.57;;
85001;SDS011;75323;31.624;-8.002;2024-03-17T10:04:48;15.85;;;5.45;;
85001;SDS011;75323;31.624;-8.002;2024-03-17T10:07:14;14.57;;;5.63;;
85001;SDS011;75323;31.624;-8.002;2024-03-17T10:09:41;20.67;;;4.53;;
85001;SDS011;75323;31.624;-8.002;2024-03-17T10:12:25;10.32;;;4.20;;
85001;SDS011;75323;31.624;-8.002;2024-03-17T10:14:58;16.52;;;4.30;;
85001;SDS011;75323;31.624;-8.002;2024-03-17T10:17:32;20.08;;;4.95;;
85001;SDS011;75323;31.624;-8.002;2024-03-17T10:23:07;13.05;;;3.60;;
85001;SDS011;75323;31.624;-8.002;2024-03-17T10:25:38;16.70;;;4.80;;
85001;SDS011;75323;31.624;-8.002;2024-03-17T10:28:13;11.55;;;4.60;;
85001;SDS011;75323;31.624;-8.002;2024-03-17T10:30:41;14.63;;;4.18;;
85001;SDS011;75323;31.624;-8.002;2024-03-17T10:33:07;13.85;;;4.72;;
85001;SDS011;75323;31.624;-8.002;2024-03-17T10:35:50;15.45;;;3.75;;
85001;SDS011;75323;31.624;-8.002;2024-03-17T10:38:15;18.13;;;4.45;;
85001;SDS011;75323;31.624;-8.002;2024-03-17T10:40:41;12.93;;;3.67;;
85001;SDS011;75323;31.624;-8.002;2024-03-17T10:43:07;10.93;;;4.30;;
85001;SDS011;75323;31.624;-8.002;2024-03-17T10:45:33;12.60;;;4.03;;
85001;SDS011;75323;31.624;-8.002;2024-03-17T10:48:06;10.35;;;4.18;;
85001;SDS011;75323;31.624;-8.002;2024-03-17T10:50:37;14.85;;;4.15;;
85001;SDS011;75323;31.624;-8.002;2024-03-17T10:53:04;15.30;;;3.97;;
85001;SDS011;75323;31.624;-8.002;2024-03-17T10:55:44;12.50;;;3.63;;
85001;SDS011;75323;31.624;-8.002;2024-03-17T10:58:23;13.23;;;4.45;;
85001;SDS011;75323;31.624;-8.002;2024-03-17T11:01:03;13.63;;;4.43;;
85001;SDS011;75323;31.624;-8.002;2024-03-17T11:03:32;12.85;;;5.97;;
85001;SDS011;75323;31.624;-8.002;2024-03-17T11:05:59;14.55;;;4.75;;
85001;SDS011;75323;31.624;-8.002;2024-03-17T11:08:26;17.13;;;6.13;;
85001;SDS011;75323;31.624;-8.002;2024-03-17T11:10:52;18.10;;;5.68;;
85001;SDS011;75323;31.624;-8.002;2024-03-17T11:13:23;12.77;;;5.68;;
85001;SDS011;75323;31.624;-8.002;2024-03-17T11:15:50;12.27;;;5.70;;
85001;SDS011;75323;31.624;-8.002;2024-03-17T11:23:54;17.60;;;5.97;;
85001;SDS011;75323;31.624;-8.002;2024-03-17T11:26:31;14.60;;;4.55;;
85001;SDS011;75323;31.624;-8.002;2024-03-17T11:28:59;12.45;;;5.30;;
85001;SDS011;75323;31.624;-8.002;2024-03-17T11:36:55;16.77;;;4.75;;
85001;SDS011;75323;31.624;-8.002;2024-03-17T11:39:45;13.10;;;3.53;;
85001;SDS011;75323;31.624;-8.002;2024-03-17T11:44:56;13.88;;;4.07;;
85001;SDS011;75323;31.624;-8.002;2024-03-17T11:47:23;14.68;;;3.00;;
85001;SDS011;75323;31.624;-8.002;2024-03-17T11:50:00;13.23;;;2.72;;
85001;SDS011;75323;31.624;-8.002;2024-03-17T11:52:27;14.18;;;2.65;;
85001;SDS011;75323;31.624;-8.002;2024-03-17T11:54:53;15.23;;;3.05;;
85001;SDS011;75323;31.624;-8.002;2024-03-17T11:57:24;20.38;;;3.35;;
85001;SDS011;75323;31.624;-8.002;2024-03-17T11:59:51;13.77;;;3.50;;
85001;SDS011;75323;31.624;-8.002;2024-03-17T12:04:47;18.48;;;3.47;;
85001;SDS011;75323;31.624;-8.002;2024-03-17T12:07:14;19.80;;;2.70;;
85001;SDS011;75323;31.624;-8.002;2024-03-17T12:09:42;16.52;;;3.45;;
85001;SDS011;75323;31.624;-8.002;2024-03-17T12:12:09;16.27;;;3.33;;
85001;SDS011;75323;31.624;-8.002;2024-03-17T12:14:38;18.17;;;3.28;;
85001;SDS011;75323;31.624;-8.002;2024-03-17T12:17:07;25.05;;;3.75;;
85001;SDS011;75323;31.624;-8.002;2024-03-17T12:19:34;14.65;;;2.75;;
85001;SDS011;75323;31.624;-8.002;2024-03-17T12:22:01;18.25;;;2.28;;
85001;SDS011;75323;31.624;-8.002;2024-03-17T12:24:31;13.70;;;2.40;;
85001;SDS011;75323;31.624;-8.002;2024-03-17T12:29:34;16.25;;;2.33;;
85001;SDS011;75323;31.624;-8.002;2024-03-17T12:32:04;17.58;;;2.92;;
85001;SDS011;75323;31.624;-8.002;2024-03-17T12:34:31;21.83;;;2.67;;
85001;SDS011;75323;31.624;-8.002;2024-03-17T12:36:59;20.60;;;3.65;;
85001;SDS011;75323;31.624;-8.002;2024-03-17T12:39:33;14.32;;;2.90;;
85001;SDS011;75323;31.624;-8.002;2024-03-17T12:42:07;16.73;;;3.25;;
85001;SDS011;75323;31.624;-8.002;2024-03-17T12:44:37;16.67;;;2.13;;
85001;SDS011;75323;31.624;-8.002;2024-03-17T12:47:07;24.10;;;4.00;;
85001;SDS011;75323;31.624;-8.002;2024-03-17T12:49:34;12.63;;;3.13;;
85001;SDS011;75323;31.624;-8.002;2024-03-17T12:52:03;18.10;;;3.58;;
85001;SDS011;75323;31.624;-8.002;2024-03-17T12:54:29;17.67;;;3.90;;
85001;SDS011;75323;31.624;-8.002;2024-03-17T12:57:05;17.20;;;3.38;;
85001;SDS011;75323;31.624;-8.002;2024-03-17T13:02:34;14.63;;;3.72;;
85001;SDS011;75323;31.624;-8.002;2024-03-17T13:05:15;24.05;;;3.88;;
85001;SDS011;75323;31.624;-8.002;2024-03-17T13:07:46;20.15;;;4.57;;
85001;SDS011;75323;31.624;-8.002;2024-03-17T13:10:12;17.10;;;3.97;;
85001;SDS011;75323;31.624;-8.002;2024-03-17T13:12:39;21.13;;;4.15;;
85001;SDS011;75323;31.624;-8.002;2024-03-17T13:15:08;21.23;;;4.13;;
85001;SDS011;75323;31.624;-8.002;2024-03-17T13:17:35;18.55;;;3.75;;
85001;SDS011;75323;31.624;-8.002;2024-03-17T13:20:01;16.58;;;3.60;;
85001;SDS011;75323;31.624;-8.002;2024-03-17T13:22:27;18.58;;;3.17;;
85001;SDS011;75323;31.624;-8.002;2024-03-17T13:24:53;10.05;;;3.10;;
85001;SDS011;75323;31.624;-8.002;2024-03-17T13:27:19;18.63;;;4.68;;
85001;SDS011;75323;31.624;-8.002;2024-03-17T13:29:48;21.08;;;2.88;;
85001;SDS011;75323;31.624;-8.002;2024-03-17T13:32:15;16.23;;;2.80;;
85001;SDS011;75323;31.624;-8.002;2024-03-17T13:34:42;19.10;;;3.20;;
85001;SDS011;75323;31.624;-8.002;2024-03-17T13:37:08;21.70;;;2.78;;
85001;SDS011;75323;31.624;-8.002;2024-03-17T13:39:34;19.38;;;3.28;;
85001;SDS011;75323;31.624;-8.002;2024-03-17T13:42:01;13.82;;;2.47;;
85001;SDS011;75323;31.624;-8.002;2024-03-17T13:44:30;13.05;;;3.28;;
85001;SDS011;75323;31.624;-8.002;2024-03-17T13:46:56;17.40;;;2.15;;
85001;SDS011;75323;31.624;-8.002;2024-03-17T13:49:23;20.08;;;2.97;;
85001;SDS011;75323;31.624;-8.002;2024-03-17T13:51:51;22.65;;;3.42;;
85001;SDS011;75323;31.624;-8.002;2024-03-17T13:54:17;19.70;;;2.78;;
85001;SDS011;75323;31.624;-8.002;2024-03-17T13:56:46;19.85;;;3.05;;
85001;SDS011;75323;31.624;-8.002;2024-03-17T13:59:13;24.52;;;3.35;;
85001;SDS011;75323;31.624;-8.002;2024-03-17T14:01:45;20.63;;;2.72;;
85001;SDS011;75323;31.624;-8.002;2024-03-17T14:04:14;28.98;;;3.85;;
85001;SDS011;75323;31.624;-8.002;2024-03-17T14:06:41;18.67;;;3.30;;
85001;SDS011;75323;31.624;-8.002;2024-03-17T14:09:09;17.65;;;2.95;;
85001;SDS011;75323;31.624;-8.002;2024-03-17T14:11:35;23.25;;;3.13;;
85001;SDS011;75323;31.624;-8.002;2024-03-17T14:14:02;20.80;;;3.08;;
85001;SDS011;75323;31.624;-8.002;2024-03-17T14:16:29;16.85;;;3.20;;
85001;SDS011;75323;31.624;-8.002;2024-03-17T14:18:57;16.30;;;2.40;;
85001;SDS011;75323;31.624;-8.002;2024-03-17T14:21:22;25.65;;;2.67;;
85001;SDS011;75323;31.624;-8.002;2024-03-17T14:23:48;21.73;;;2.90;;
85001;SDS011;75323;31.624;-8.002;2024-03-17T14:26:14;16.27;;;1.63;;
85001;SDS011;75323;31.624;-8.002;2024-03-17T14:28:40;21.77;;;2.65;;
85001;SDS011;75323;31.624;-8.002;2024-03-17T14:31:06;16.92;;;2.53;;
85001;SDS011;75323;31.624;-8.002;2024-03-17T14:33:31;17.48;;;2.75;;
85001;SDS011;75323;31.624;-8.002;2024-03-17T14:35:57;16.23;;;2.35;;
85001;SDS011;75323;31.624;-8.002;2024-03-17T14:38:23;21.50;;;3.35;;
85001;SDS011;75323;31.624;-8.002;2024-03-17T14:40:52;23.73;;;3.75;;
85001;SDS011;75323;31.624;-8.002;2024-03-17T14:43:19;17.17;;;2.88;;
85001;SDS011;75323;31.624;-8.002;2024-03-17T14:45:45;21.17;;;4.30;;
85001;SDS011;75323;31.624;-8.002;2024-03-17T14:48:11;15.93;;;2.92;;
85001;SDS011;75323;31.624;-8.002;2024-03-17T14:50:38;14.02;;;2.78;;